createdAt,value
2022-10-16T00:01:06.113Z,12.00
2022-10-16T00:03:34.146Z,12.00
2022-10-16T00:06:02.962Z,12.10
2022-10-16T00:08:31.241Z,12.10
2022-10-16T00:11:03.947Z,12.10
2022-10-16T00:13:33.830Z,12.10
2022-10-16T00:16:02.966Z,12.20
2022-10-16T00:18:31.231Z,12.20
2022-10-16T00:21:04.256Z,12.20
2022-10-16T00:23:32.672Z,12.20
2022-10-16T00:26:02.485Z,12.20
2022-10-16T00:28:30.954Z,12.20
2022-10-16T00:31:00.949Z,12.30
2022-10-16T00:33:28.967Z,12.40
2022-10-16T00:35:59.372Z,12.40
2022-10-16T00:38:27.546Z,12.50
2022-10-16T00:40:55.590Z,12.50
2022-10-16T00:43:39.342Z,12.60
2022-10-16T00:46:17.090Z,12.60
2022-10-16T00:48:57.426Z,12.60
2022-10-16T00:51:30.458Z,12.70
2022-10-16T00:53:58.819Z,12.70
2022-10-16T00:56:26.869Z,12.80
2022-10-16T00:58:55.019Z,12.90
2022-10-16T01:01:24.620Z,13.00
2022-10-16T01:03:52.559Z,13.00
2022-10-16T01:09:16.049Z,13.00
2022-10-16T01:11:51.173Z,12.90
2022-10-16T01:14:27.858Z,12.90
2022-10-16T01:17:05.986Z,12.80
2022-10-16T01:19:52.021Z,12.80
2022-10-16T01:22:24.040Z,12.70
2022-10-16T01:24:52.647Z,12.60
2022-10-16T01:27:25.752Z,12.60
2022-10-16T01:29:56.843Z,12.50
2022-10-16T01:32:32.721Z,12.50
2022-10-16T01:35:05.935Z,12.50
2022-10-16T01:37:38.929Z,12.40
2022-10-16T01:40:11.912Z,12.50
2022-10-16T01:42:45.109Z,12.50
2022-10-16T01:45:19.067Z,12.50
2022-10-16T01:47:48.810Z,12.50
2022-10-16T01:50:19.660Z,12.50
2022-10-16T01:52:51.629Z,12.50
2022-10-16T01:55:24.441Z,12.50
2022-10-16T01:57:55.929Z,12.50
2022-10-16T02:00:25.650Z,12.50
2022-10-16T02:02:56.327Z,12.50
2022-10-16T02:05:29.089Z,12.50
2022-10-16T02:07:58.546Z,12.50
2022-10-16T02:10:32.462Z,12.50
2022-10-16T02:13:06.939Z,12.60
2022-10-16T02:15:35.023Z,12.60
2022-10-16T02:18:04.173Z,12.60
2022-10-16T02:20:38.961Z,12.60
2022-10-16T02:23:08.986Z,12.60
2022-10-16T02:25:42.255Z,12.50
2022-10-16T02:28:17.925Z,12.50
2022-10-16T02:30:49.490Z,12.50
2022-10-16T02:33:18.960Z,12.50
2022-10-16T02:35:48.480Z,12.50
2022-10-16T02:38:18.227Z,12.40
2022-10-16T02:40:47.018Z,12.40
2022-10-16T02:43:16.892Z,12.40
2022-10-16T02:45:45.019Z,12.30
2022-10-16T02:48:13.283Z,12.30
2022-10-16T02:50:41.181Z,12.30
2022-10-16T02:53:09.158Z,12.30
2022-10-16T02:55:37.322Z,12.20
2022-10-16T02:58:05.365Z,12.10
2022-10-16T03:00:34.880Z,12.10
2022-10-16T03:03:02.897Z,12.10
2022-10-16T03:05:30.985Z,12.10
2022-10-16T03:08:01.097Z,12.10
2022-10-16T03:10:29.381Z,12.00
2022-10-16T03:12:57.465Z,12.00
2022-10-16T03:15:25.466Z,12.00
2022-10-16T03:17:54.829Z,11.90
2022-10-16T03:20:22.986Z,11.90
2022-10-16T03:22:50.913Z,11.90
2022-10-16T03:25:18.903Z,11.80
2022-10-16T03:27:47.228Z,11.80
2022-10-16T03:30:15.712Z,11.80
2022-10-16T03:32:43.678Z,11.80
2022-10-16T03:35:13.285Z,11.70
2022-10-16T03:37:41.753Z,11.80
2022-10-16T03:40:10.967Z,11.80
2022-10-16T03:42:38.992Z,11.80
2022-10-16T03:45:08.127Z,11.80
2022-10-16T03:47:36.253Z,11.80
2022-10-16T03:50:05.371Z,11.80
2022-10-16T03:52:34.848Z,11.80
2022-10-16T03:55:02.906Z,11.70
2022-10-16T03:57:30.836Z,11.80
2022-10-16T03:59:58.832Z,11.70
2022-10-16T04:02:26.978Z,11.80
2022-10-16T04:04:55.018Z,11.80
2022-10-16T04:07:23.328Z,11.80
2022-10-16T04:09:53.210Z,11.80
2022-10-16T04:12:21.235Z,11.80
2022-10-16T04:14:49.276Z,11.80
2022-10-16T04:17:18.255Z,11.80
2022-10-16T04:19:46.505Z,11.80
2022-10-16T04:22:15.287Z,11.70
2022-10-16T04:24:43.467Z,11.70
2022-10-16T04:27:12.994Z,11.70
2022-10-16T04:29:41.112Z,11.60
2022-10-16T04:32:10.685Z,11.60
2022-10-16T04:34:39.335Z,11.60
2022-10-16T04:37:07.709Z,11.60
2022-10-16T04:39:35.764Z,11.60
2022-10-16T04:42:03.826Z,11.60
2022-10-16T04:44:33.178Z,11.50
2022-10-16T04:47:01.350Z,11.60
2022-10-16T04:49:29.260Z,11.50
2022-10-16T04:51:57.281Z,11.50
2022-10-16T04:54:25.229Z,11.50
2022-10-16T04:56:53.474Z,11.50
2022-10-16T04:59:23.374Z,11.40
2022-10-16T05:01:52.824Z,11.40
2022-10-16T05:04:20.744Z,11.40
2022-10-16T05:06:50.319Z,11.40
2022-10-16T05:09:18.605Z,11.40
2022-10-16T05:11:46.610Z,11.40
2022-10-16T05:14:14.967Z,11.40
2022-10-16T05:16:43.007Z,11.40
2022-10-16T05:19:28.991Z,11.40
2022-10-16T05:21:57.484Z,11.40
2022-10-16T05:24:25.668Z,11.30
2022-10-16T05:26:53.691Z,11.30
2022-10-16T05:29:21.902Z,11.30
2022-10-16T05:31:52.972Z,11.40
2022-10-16T05:34:22.862Z,11.30
2022-10-16T05:36:51.186Z,11.30
2022-10-16T05:39:19.314Z,11.30
2022-10-16T05:41:47.528Z,11.30
2022-10-16T05:44:15.421Z,11.30
2022-10-16T05:46:43.408Z,11.30
2022-10-16T05:49:11.337Z,11.30
2022-10-16T05:51:41.181Z,11.30
2022-10-16T05:54:09.446Z,11.30
2022-10-16T05:56:37.325Z,11.40
2022-10-16T05:59:05.964Z,11.40
2022-10-16T06:01:34.751Z,11.40
2022-10-16T06:04:03.186Z,11.50
2022-10-16T06:06:32.010Z,11.50
2022-10-16T06:09:01.380Z,11.50
2022-10-16T06:11:31.293Z,11.50
2022-10-16T06:14:02.755Z,11.60
2022-10-16T06:16:31.097Z,11.60
2022-10-16T06:19:00.312Z,11.70
2022-10-16T06:21:29.830Z,11.70
2022-10-16T06:23:58.705Z,11.70
2022-10-16T06:26:30.013Z,11.70
2022-10-16T06:28:59.475Z,11.70
2022-10-16T06:31:31.760Z,11.70
2022-10-16T06:34:00.413Z,11.80
2022-10-16T06:36:28.658Z,11.80
2022-10-16T06:38:56.731Z,11.80
2022-10-16T06:41:25.410Z,11.90
2022-10-16T06:43:54.904Z,11.90
2022-10-16T06:46:24.710Z,12.00
2022-10-16T06:48:53.103Z,12.10
2022-10-16T06:51:23.722Z,12.20
2022-10-16T06:54:02.964Z,12.20
2022-10-16T06:56:33.449Z,12.30
2022-10-16T06:59:03.401Z,12.40
2022-10-16T07:01:31.520Z,12.50
2022-10-16T07:03:59.637Z,12.60
2022-10-16T07:06:28.876Z,12.80
2022-10-16T07:08:57.067Z,13.00
2022-10-16T07:11:25.907Z,13.10
2022-10-16T07:13:56.082Z,13.30
2022-10-16T07:16:27.622Z,13.50
2022-10-16T07:18:59.542Z,13.70
2022-10-16T07:21:30.007Z,13.90
2022-10-16T07:24:00.167Z,14.10
2022-10-16T07:26:30.000Z,14.30
2022-10-16T07:28:58.408Z,14.40
2022-10-16T07:31:28.717Z,14.50
2022-10-16T07:33:56.972Z,14.60
2022-10-16T07:36:25.075Z,14.70
2022-10-16T07:38:55.619Z,14.70
2022-10-16T07:41:27.134Z,14.80
2022-10-16T07:43:55.943Z,14.80
2022-10-16T07:46:24.908Z,14.90
2022-10-16T07:48:54.785Z,14.90
2022-10-16T07:51:24.670Z,15.00
2022-10-16T07:53:53.315Z,15.00
2022-10-16T07:56:22.586Z,15.00
2022-10-16T07:58:51.721Z,15.00
2022-10-16T08:01:20.498Z,15.10
2022-10-16T08:03:50.553Z,15.10
2022-10-16T08:06:25.092Z,15.20
2022-10-16T08:08:56.449Z,15.30
2022-10-16T08:11:24.591Z,15.40
2022-10-16T08:13:52.475Z,15.40
2022-10-16T08:16:20.450Z,15.50
2022-10-16T08:18:48.463Z,15.60
2022-10-16T08:21:21.261Z,15.70
2022-10-16T08:23:54.511Z,15.90
2022-10-16T08:26:26.860Z,15.90
2022-10-16T08:28:55.064Z,16.00
2022-10-16T08:31:23.860Z,16.10
2022-10-16T08:33:53.468Z,16.10
2022-10-16T08:36:23.078Z,16.20
2022-10-16T08:38:54.522Z,16.20
2022-10-16T08:41:54.589Z,16.20
2022-10-16T08:44:55.053Z,16.20
2022-10-16T08:47:27.312Z,16.20
2022-10-16T08:50:01.401Z,16.30
2022-10-16T08:52:36.426Z,16.30
2022-10-16T08:55:05.962Z,16.30
2022-10-16T08:57:33.990Z,16.30
2022-10-16T09:00:11.133Z,16.40
2022-10-16T09:02:43.122Z,16.40
2022-10-16T09:05:24.558Z,16.40
2022-10-16T09:08:05.612Z,16.40
2022-10-16T09:10:43.608Z,16.40
2022-10-16T09:13:19.645Z,16.40
2022-10-16T09:15:56.953Z,16.50
2022-10-16T09:18:32.770Z,16.60
2022-10-16T09:21:09.484Z,16.70
2022-10-16T09:23:40.009Z,16.80
2022-10-16T09:26:12.224Z,16.90
2022-10-16T09:28:40.619Z,17.10
2022-10-16T09:31:17.479Z,17.40
2022-10-16T09:33:47.430Z,17.50
2022-10-16T09:36:16.209Z,17.60
2022-10-16T09:38:45.621Z,17.70
2022-10-16T09:41:20.668Z,17.70
2022-10-16T09:43:51.931Z,17.70
2022-10-16T09:46:27.177Z,17.60
2022-10-16T09:48:57.896Z,17.50
2022-10-16T09:51:27.877Z,17.40
2022-10-16T09:54:02.569Z,17.50
2022-10-16T09:56:33.548Z,17.50
2022-10-16T09:59:04.578Z,17.60
2022-10-16T10:01:37.868Z,17.60
2022-10-16T10:04:06.798Z,17.90
2022-10-16T10:06:39.017Z,18.00
2022-10-16T10:09:21.070Z,18.30
2022-10-16T10:11:56.793Z,18.50
2022-10-16T10:14:34.465Z,18.70
2022-10-16T10:17:13.832Z,18.80
2022-10-16T10:19:44.116Z,18.90
2022-10-16T10:22:43.027Z,18.90
2022-10-16T10:25:22.089Z,18.90
2022-10-16T10:28:03.596Z,18.80
2022-10-16T10:30:40.676Z,18.80
2022-10-16T10:33:21.206Z,18.80
2022-10-16T10:35:57.709Z,18.80
2022-10-16T10:38:33.017Z,18.90
2022-10-16T10:41:15.313Z,19.00
2022-10-16T10:43:56.665Z,18.90
2022-10-16T10:46:33.580Z,19.00
2022-10-16T10:49:21.878Z,19.10
2022-10-16T10:52:00.685Z,19.10
2022-10-16T10:54:36.047Z,19.10
2022-10-16T10:57:12.537Z,19.00
2022-10-16T10:59:57.580Z,18.90
2022-10-16T11:02:33.988Z,19.00
2022-10-16T11:05:25.266Z,19.00
2022-10-16T11:07:57.382Z,19.00
2022-10-16T11:10:30.418Z,19.10
2022-10-16T11:13:10.269Z,19.20
2022-10-16T11:15:43.580Z,19.40
2022-10-16T11:18:19.021Z,19.40
2022-10-16T11:20:53.139Z,19.40
2022-10-16T11:23:27.884Z,19.50
2022-10-16T11:26:00.630Z,19.40
2022-10-16T11:28:34.906Z,19.40
2022-10-16T11:31:09.788Z,19.30
2022-10-16T11:33:42.374Z,19.30
2022-10-16T11:36:15.390Z,19.20
2022-10-16T11:38:50.372Z,19.20
2022-10-16T11:41:26.814Z,19.20
2022-10-16T11:44:07.579Z,19.20
2022-10-16T11:46:52.541Z,19.20
2022-10-16T11:49:28.994Z,19.20
2022-10-16T11:52:08.123Z,19.30
2022-10-16T11:54:43.529Z,19.40
2022-10-16T11:57:16.512Z,19.40
2022-10-16T11:59:51.415Z,19.50
2022-10-16T12:02:46.295Z,19.40
2022-10-16T12:05:24.921Z,19.40
2022-10-16T12:08:01.845Z,19.40
2022-10-16T12:10:33.355Z,19.40
2022-10-16T12:13:01.433Z,19.50
2022-10-16T12:15:58.091Z,19.50
2022-10-16T12:18:24.227Z,19.40
2022-10-16T12:21:00.404Z,19.40
2022-10-16T12:23:28.938Z,19.40
2022-10-16T12:25:58.760Z,19.30
2022-10-16T12:28:30.709Z,19.30
2022-10-16T12:31:03.094Z,19.20
2022-10-16T12:33:33.982Z,19.20
2022-10-16T12:36:05.285Z,19.10
2022-10-16T12:38:38.975Z,18.90
2022-10-16T12:41:10.636Z,18.80
2022-10-16T12:43:44.053Z,18.80
2022-10-16T12:46:37.629Z,18.60
2022-10-16T12:49:31.208Z,18.60
2022-10-16T12:51:59.978Z,18.60
2022-10-16T12:54:31.605Z,18.70
2022-10-16T12:57:16.295Z,18.80
2022-10-16T12:59:52.924Z,18.90
2022-10-16T13:02:47.199Z,19.00
2022-10-16T13:05:27.679Z,19.00
2022-10-16T13:08:05.547Z,19.10
2022-10-16T13:10:42.362Z,19.10
2022-10-16T13:13:37.336Z,19.10
2022-10-16T13:16:17.922Z,19.10
2022-10-16T13:18:57.550Z,19.10
2022-10-16T13:21:41.062Z,19.10
2022-10-16T13:24:28.006Z,19.10
2022-10-16T13:27:03.487Z,19.20
2022-10-16T13:29:33.457Z,19.30
2022-10-16T13:32:03.541Z,19.40
2022-10-16T13:34:32.761Z,19.40
2022-10-16T13:37:00.802Z,19.50
2022-10-16T13:39:30.232Z,19.60
2022-10-16T13:42:08.082Z,19.50
2022-10-16T13:44:44.515Z,19.50
2022-10-16T13:47:20.826Z,19.50
2022-10-16T13:50:02.590Z,19.50
2022-10-16T13:52:30.827Z,19.50
2022-10-16T13:55:01.775Z,19.30
2022-10-16T13:57:30.938Z,19.20
2022-10-16T13:59:58.859Z,19.10
2022-10-16T14:02:30.447Z,19.00
2022-10-16T14:05:00.722Z,19.10
2022-10-16T14:07:30.552Z,19.10
2022-10-16T14:10:02.632Z,19.00
2022-10-16T14:12:31.050Z,19.10
2022-10-16T14:15:01.813Z,19.10
2022-10-16T14:17:31.919Z,19.20
2022-10-16T14:20:06.419Z,19.00
2022-10-16T14:22:37.042Z,18.90
2022-10-16T14:25:23.663Z,18.90
2022-10-16T14:31:08.164Z,18.80
2022-10-16T14:33:36.679Z,18.80
2022-10-16T14:36:12.173Z,18.80
2022-10-16T14:38:42.046Z,18.80
2022-10-16T14:41:10.869Z,18.60
2022-10-16T14:43:41.377Z,18.60
2022-10-16T14:46:15.220Z,18.60
2022-10-16T14:48:44.343Z,18.50
2022-10-16T14:51:16.408Z,18.50
2022-10-16T14:53:44.474Z,18.50
2022-10-16T14:56:20.277Z,18.50
2022-10-16T14:58:48.319Z,18.40
2022-10-16T15:01:16.499Z,18.40
2022-10-16T15:03:45.039Z,18.40
2022-10-16T15:06:14.848Z,18.30
2022-10-16T15:08:43.453Z,18.20
2022-10-16T15:11:14.684Z,18.10
2022-10-16T15:13:42.811Z,18.00
2022-10-16T15:16:13.373Z,17.90
2022-10-16T15:18:41.449Z,17.90
2022-10-16T15:21:10.079Z,17.80
2022-10-16T15:23:39.797Z,17.70
2022-10-16T15:26:07.739Z,17.50
2022-10-16T15:28:36.782Z,17.30
2022-10-16T15:31:07.358Z,17.20
2022-10-16T15:33:39.637Z,17.00
2022-10-16T15:36:08.956Z,16.90
2022-10-16T15:38:40.463Z,16.70
2022-10-16T15:41:08.361Z,16.50
2022-10-16T15:43:39.024Z,16.30
2022-10-16T15:46:09.518Z,16.20
2022-10-16T15:48:37.578Z,16.00
2022-10-16T15:51:08.368Z,15.80
2022-10-16T15:53:38.885Z,15.70
2022-10-16T15:56:10.172Z,15.40
2022-10-16T15:58:38.450Z,15.30
2022-10-16T16:01:07.692Z,15.10
2022-10-16T16:03:36.902Z,15.00
2022-10-16T16:06:09.115Z,14.80
2022-10-16T16:08:37.975Z,14.60
2022-10-16T16:11:09.630Z,14.50
2022-10-16T16:13:39.573Z,14.30
2022-10-16T16:16:09.773Z,14.20
2022-10-16T16:18:38.082Z,14.00
2022-10-16T16:21:07.109Z,13.90
2022-10-16T16:23:37.558Z,13.80
2022-10-16T16:26:09.175Z,13.70
2022-10-16T16:28:37.504Z,13.50
2022-10-16T16:31:05.680Z,13.40
2022-10-16T16:33:34.109Z,13.30
2022-10-16T16:36:03.527Z,13.20
2022-10-16T16:38:31.762Z,13.00
2022-10-16T16:40:59.674Z,13.00
2022-10-16T16:43:29.684Z,12.90
2022-10-16T16:45:57.662Z,12.80
2022-10-16T16:48:25.817Z,12.80
2022-10-16T16:50:53.882Z,12.70
2022-10-16T16:53:22.977Z,12.60
2022-10-16T16:55:51.068Z,12.50
2022-10-16T16:58:18.963Z,12.50
2022-10-16T17:00:56.735Z,12.40
2022-10-16T17:03:25.377Z,12.40
2022-10-16T17:06:00.309Z,12.30
2022-10-16T17:08:29.266Z,12.20
2022-10-16T17:10:57.988Z,12.20
2022-10-16T17:13:27.398Z,12.10
2022-10-16T17:15:57.211Z,12.00
2022-10-16T17:18:25.975Z,11.90
2022-10-16T17:20:53.967Z,11.80
2022-10-16T17:23:22.275Z,11.80
2022-10-16T17:25:50.190Z,11.70
2022-10-16T17:28:18.454Z,11.60
2022-10-16T17:30:46.730Z,11.60
2022-10-16T17:33:16.250Z,11.50
2022-10-16T17:35:46.290Z,11.50
2022-10-16T17:38:16.858Z,11.40
2022-10-16T17:40:44.986Z,11.40
2022-10-16T17:43:13.140Z,11.30
2022-10-16T17:45:41.162Z,11.20
2022-10-16T17:48:09.254Z,11.10
2022-10-16T17:50:41.594Z,11.10
2022-10-16T17:53:09.930Z,11.10
2022-10-16T17:55:40.064Z,11.00
2022-10-16T17:58:08.291Z,10.90
2022-10-16T18:00:36.449Z,10.90
2022-10-16T18:03:04.996Z,10.80
2022-10-16T18:05:32.938Z,10.70
2022-10-16T18:08:02.376Z,10.70
2022-10-16T18:10:31.155Z,10.70
2022-10-16T18:12:59.122Z,10.60
2022-10-16T18:15:27.194Z,10.60
2022-10-16T18:17:55.198Z,10.50
2022-10-16T18:20:23.478Z,10.50
2022-10-16T18:22:52.185Z,10.40
2022-10-16T18:25:21.581Z,10.40
2022-10-16T18:27:49.618Z,10.30
2022-10-16T18:30:17.803Z,10.30
2022-10-16T18:32:45.791Z,10.20
2022-10-16T18:37:46.757Z,10.20
2022-10-16T18:40:14.752Z,10.20
2022-10-16T18:42:44.136Z,10.20
2022-10-16T18:45:12.378Z,10.10
2022-10-16T18:47:41.967Z,10.00
2022-10-16T18:50:11.832Z,10.00
2022-10-16T18:52:40.682Z,10.00
2022-10-16T18:55:10.814Z,9.90
2022-10-16T18:57:38.850Z,9.90
2022-10-16T19:00:09.885Z,9.90
2022-10-16T19:02:37.821Z,9.90
2022-10-16T19:05:06.778Z,9.90
2022-10-16T19:07:34.834Z,9.80
2022-10-16T19:10:03.018Z,9.80
2022-10-16T19:12:31.051Z,9.80
2022-10-16T19:14:58.977Z,9.70
2022-10-16T19:17:28.265Z,9.70
2022-10-16T19:19:57.080Z,9.60
2022-10-16T19:22:40.926Z,9.60
2022-10-16T19:25:10.067Z,9.60
2022-10-16T19:27:38.118Z,9.70
2022-10-16T19:30:07.276Z,9.70
2022-10-16T19:32:36.758Z,9.70
2022-10-16T19:35:05.443Z,9.80
2022-10-16T19:37:33.404Z,9.70
2022-10-16T19:40:01.353Z,9.80
2022-10-16T19:42:29.509Z,9.80
2022-10-16T19:44:57.619Z,9.80
2022-10-16T19:47:25.854Z,9.80
2022-10-16T19:49:55.362Z,9.80
2022-10-16T19:52:23.349Z,9.90
2022-10-16T19:54:51.308Z,9.80
2022-10-16T19:57:19.306Z,9.80
2022-10-16T19:59:47.268Z,9.80
2022-10-16T20:02:15.205Z,9.70
2022-10-16T20:04:43.292Z,9.70
2022-10-16T20:07:12.639Z,9.70
2022-10-16T20:09:40.644Z,9.70
2022-10-16T20:12:08.682Z,9.70
2022-10-16T20:14:36.587Z,9.70
2022-10-16T20:17:04.762Z,9.70
2022-10-16T20:19:34.141Z,9.70
2022-10-16T20:22:03.702Z,9.70
2022-10-16T20:24:33.057Z,9.70
2022-10-16T20:27:01.156Z,9.60
2022-10-16T20:29:29.163Z,9.60
2022-10-16T20:31:57.088Z,9.60
2022-10-16T20:34:25.104Z,9.60
2022-10-16T20:36:53.155Z,9.60
2022-10-16T20:39:21.359Z,9.60
2022-10-16T20:41:50.943Z,9.60
2022-10-16T20:44:19.014Z,9.50
2022-10-16T20:46:47.050Z,9.60
2022-10-16T20:49:28.296Z,9.60
2022-10-16T20:52:04.884Z,9.60
2022-10-16T20:54:32.927Z,9.60
2022-10-16T20:57:02.437Z,9.70
2022-10-16T20:59:30.532Z,9.70
2022-10-16T21:01:58.523Z,9.70
2022-10-16T21:04:26.654Z,9.80
2022-10-16T21:06:54.598Z,9.70
2022-10-16T21:09:22.669Z,9.80
2022-10-16T21:11:50.625Z,9.80
2022-10-16T21:14:20.035Z,9.80
2022-10-16T21:16:47.957Z,9.80
2022-10-16T21:19:15.988Z,9.80
2022-10-16T21:21:44.119Z,9.90
2022-10-16T21:24:16.538Z,9.90
2022-10-16T21:26:45.553Z,9.80
2022-10-16T21:29:14.305Z,9.80
2022-10-16T21:31:44.242Z,9.80
2022-10-16T21:34:12.259Z,9.80
2022-10-16T21:36:42.274Z,9.80
2022-10-16T21:39:12.222Z,9.80
2022-10-16T21:41:40.749Z,9.80
2022-10-16T21:44:10.612Z,9.70
2022-10-16T21:46:39.852Z,9.70
2022-10-16T21:49:13.023Z,9.70
2022-10-16T21:51:42.625Z,9.60
2022-10-16T21:54:13.422Z,9.60
2022-10-16T21:56:41.421Z,9.60
2022-10-16T21:59:09.606Z,9.60
2022-10-16T22:01:37.682Z,9.60
2022-10-16T22:04:05.742Z,9.60
2022-10-16T22:06:35.093Z,9.60
2022-10-16T22:09:03.013Z,9.60
2022-10-16T22:11:36.861Z,9.60
2022-10-16T22:14:06.159Z,9.60
2022-10-16T22:16:34.445Z,9.60
2022-10-16T22:19:03.725Z,9.60
2022-10-16T22:21:32.450Z,9.60
2022-10-16T22:24:02.061Z,9.70
2022-10-16T22:26:30.084Z,9.70
2022-10-16T22:28:58.097Z,9.70
2022-10-16T22:31:26.143Z,9.70
2022-10-16T22:33:58.970Z,9.70
2022-10-16T22:36:27.568Z,9.70
2022-10-16T22:38:55.917Z,9.70
2022-10-16T22:41:25.688Z,9.70
2022-10-16T22:43:54.145Z,9.70
2022-10-16T22:46:24.249Z,9.80
2022-10-16T22:48:52.779Z,9.80
2022-10-16T22:51:21.533Z,9.80
2022-10-16T22:53:50.713Z,9.80
2022-10-16T22:56:20.240Z,9.80
2022-10-16T22:58:49.719Z,9.80
2022-10-16T23:01:20.063Z,9.90
2022-10-16T23:03:48.079Z,9.90
2022-10-16T23:06:16.346Z,10.00
2022-10-16T23:08:44.344Z,10.00
2022-10-16T23:11:13.665Z,10.00
2022-10-16T23:13:45.544Z,10.00
2022-10-16T23:16:16.715Z,10.10
2022-10-16T23:18:45.246Z,10.10
2022-10-16T23:21:14.916Z,10.10
2022-10-16T23:23:43.807Z,10.20
2022-10-16T23:26:13.272Z,10.20
2022-10-16T23:28:41.583Z,10.30
2022-10-16T23:31:10.414Z,10.30
2022-10-16T23:33:40.384Z,10.30
2022-10-16T23:36:09.762Z,10.30
2022-10-16T23:38:37.997Z,10.30
2022-10-16T23:41:06.875Z,10.30
2022-10-16T23:43:35.101Z,10.40
2022-10-16T23:46:03.180Z,10.30
2022-10-16T23:48:31.464Z,10.40
2022-10-16T23:51:00.942Z,10.40
2022-10-16T23:53:28.913Z,10.40
2022-10-16T23:55:57.034Z,10.40
2022-10-16T23:58:24.965Z,10.40
